Time;durP1;ratioP1;P1;durP2;ratioP2;P2;SDS_P1;SDS_P2;PMS_P1;PMS_P2;Temp;Humidity;BMP_temperature;BMP_pressure;BME280_temperature;BME280_humidity;BME280_pressure;Samples;Min_cycle;Max_cycle;Signal;HPM_P1;HPM_P2
2021/08/28 00:00:32;;;;;;;22.42;17.38;;;;;;;19.91;100.00;96615.81;5082234;28;20055;-64
2021/08/28 00:02:59;;;;;;;29.00;18.55;;;;;;;19.49;100.00;96565.09;5084295;28;20075;-68
2021/08/28 00:05:26;;;;;;;26.98;18.67;;;;;;;19.79;100.00;96634.16;5083751;28;20048;-68
2021/08/28 00:07:54;;;;;;;24.33;18.63;;;;;;;19.44;100.00;96593.72;5082601;28;20052;-65
2021/08/28 00:10:22;;;;;;;24.30;18.83;;;;;;;19.41;100.00;96577.72;5083479;28;20474;-63
2021/08/28 00:12:49;;;;;;;28.95;18.85;;;;;;;19.78;100.00;96617.75;5082212;28;20060;-65
2021/08/28 00:15:15;;;;;;;28.52;17.67;;;;;;;19.55;100.00;96583.00;5083540;28;20120;-65
2021/08/28 00:17:42;;;;;;;24.70;19.10;;;;;;;19.70;100.00;96622.78;5083896;28;20044;-64
2021/08/28 00:20:11;;;;;;;22.70;17.33;;;;;;;19.77;100.00;96616.19;5083432;28;20060;-66
2021/08/28 00:22:39;;;;;;;25.30;18.30;;;;;;;19.60;100.00;96594.94;5083252;28;20399;-63
2021/08/28 00:25:06;;;;;;;24.45;17.52;;;;;;;19.76;100.00;96611.81;5083081;28;20051;-64
2021/08/28 00:27:34;;;;;;;22.95;16.38;;;;;;;19.76;100.00;96614.59;5082153;28;20062;-64
2021/08/28 00:30:01;;;;;;;27.27;18.08;;;;;;;19.61;100.00;96607.75;5083357;28;20517;-63
2021/08/28 00:32:28;;;;;;;29.75;17.25;;;;;;;19.53;100.00;96602.34;5083363;28;20048;-61
2021/08/28 00:34:55;;;;;;;26.35;17.45;;;;;;;19.03;100.00;96528.91;5082906;28;20043;-68
2021/08/28 00:37:22;;;;;;;25.60;18.13;;;;;;;19.34;100.00;96606.00;5083895;28;20085;-65
2021/08/28 00:39:49;;;;;;;29.25;18.20;;;;;;;18.79;100.00;96519.09;5083417;28;20510;-65
2021/08/28 00:42:15;;;;;;;26.15;18.67;;;;;;;19.45;100.00;96600.13;5085638;28;20055;-65
2021/08/28 00:44:44;;;;;;;25.52;18.35;;;;;;;19.11;100.00;96538.72;5085826;28;20451;-66
2021/08/28 00:47:16;;;;;;;28.17;19.33;;;;;;;19.30;100.00;96563.16;5087915;28;20250;-64
2021/08/28 00:49:47;;;;;;;23.60;17.63;;;;;;;19.53;100.00;96613.56;5087478;28;20871;-62
2021/08/28 00:52:15;;;;;;;22.27;17.27;;;;;;;19.17;100.00;96567.09;5085544;28;20147;-64
2021/08/28 00:54:43;;;;;;;21.58;15.85;;;;;;;19.45;100.00;96603.72;5087238;28;20043;-63
2021/08/28 00:57:12;;;;;;;26.23;17.70;;;;;;;19.32;100.00;96614.09;5087252;28;20052;-62
2021/08/28 00:59:40;;;;;;;28.38;19.52;;;;;;;19.28;100.00;96607.75;5087205;28;20134;-62
2021/08/28 01:02:08;;;;;;;33.30;23.70;;;;;;;19.21;100.00;96609.91;5087301;28;20055;-63
2021/08/28 01:04:47;;;;;;;27.85;19.98;;;;;;;19.24;100.00;96618.25;5086619;28;20144;-63
2021/08/28 01:07:21;;;;;;;30.40;19.33;;;;;;;19.01;100.00;96587.53;5086765;28;20055;-64
2021/08/28 01:09:55;;;;;;;24.08;18.25;;;;;;;19.20;100.00;96617.56;5086300;28;20060;-64
2021/08/28 01:12:25;;;;;;;24.60;17.80;;;;;;;19.09;100.00;96622.63;5086689;28;20056;-64
2021/08/28 01:15:01;;;;;;;30.05;20.00;;;;;;;19.11;100.00;96614.53;5086856;28;20054;-65
2021/08/28 01:17:30;;;;;;;30.45;19.65;;;;;;;19.09;100.00;96622.63;5085554;28;20095;-62
2021/08/28 01:20:23;;;;;;;26.83;20.33;;;;;;;18.88;100.00;96588.63;5084882;28;20064;-67
2021/08/28 01:22:51;;;;;;;28.60;20.77;;;;;;;19.15;100.00;96615.25;5086214;28;20506;-64
2021/08/28 01:25:18;;;;;;;31.15;22.73;;;;;;;19.13;100.00;96623.31;5086407;28;20044;-64
2021/08/28 01:27:56;;;;;;;32.60;21.95;;;;;;;18.44;100.00;96488.22;5086197;28;20434;-64
2021/08/28 01:30:23;;;;;;;28.58;20.67;;;;;;;19.06;100.00;96584.16;5086570;28;20048;-64
2021/08/28 01:32:51;;;;;;;31.60;20.98;;;;;;;19.26;100.00;96615.81;5086312;28;20510;-64
2021/08/28 01:35:21;;;;;;;25.52;19.42;;;;;;;18.77;100.00;96543.97;5086085;28;20453;-66
2021/08/28 01:37:50;;;;;;;26.73;18.90;;;;;;;19.14;100.00;96607.28;5086116;28;20585;-66
2021/08/28 01:40:19;;;;;;;24.30;19.33;;;;;;;19.14;100.00;96624.13;5086023;28;20136;-64
2021/08/28 01:42:46;;;;;;;23.80;18.70;;;;;;;19.29;100.00;96609.34;5086136;28;20098;-65
2021/08/28 01:45:15;;;;;;;25.13;18.30;;;;;;;19.17;100.00;96595.94;5086175;28;20060;-64
2021/08/28 01:47:42;;;;;;;22.27;18.17;;;;;;;19.26;100.00;96603.78;5086446;28;20052;-64
2021/08/28 01:50:10;;;;;;;23.00;16.92;;;;;;;19.29;100.00;96619.78;5085912;28;20056;-65
2021/08/28 01:52:38;;;;;;;22.35;17.02;;;;;;;19.38;100.00;96606.69;5085595;28;20058;-64
2021/08/28 01:55:05;;;;;;;23.58;17.83;;;;;;;19.18;100.00;96580.69;5085979;28;20044;-67
2021/08/28 01:57:32;;;;;;;24.35;16.15;;;;;;;19.05;100.00;96525.66;5086288;28;20557;-64
2021/08/28 02:00:01;;;;;;;24.55;17.02;;;;;;;19.64;100.00;96618.91;5086185;28;20442;-64
2021/08/28 02:02:27;;;;;;;22.95;16.33;;;;;;;19.75;100.00;96624.25;5084987;28;20464;-65
2021/08/28 02:04:55;;;;;;;20.40;16.67;;;;;;;19.75;100.00;96627.06;5084260;28;20135;-64
2021/08/28 02:07:51;;;;;;;24.88;17.52;;;;;;;19.77;100.00;96627.41;5085570;28;20048;-64
2021/08/28 02:10:23;;;;;;;21.23;16.70;;;;;;;19.70;100.00;96633.22;5085111;28;20592;-64
2021/08/28 02:12:54;;;;;;;22.35;17.05;;;;;;;19.46;100.00;96616.53;5084120;28;20052;-64
2021/08/28 02:15:33;;;;;;;22.23;17.92;;;;;;;19.60;100.00;96625.84;5083669;28;20055;-63
2021/08/28 02:18:09;;;;;;;17.65;15.45;;;;;;;19.76;100.00;96639.91;5086045;28;20044;-66
2021/08/28 02:20:40;;;;;;;23.63;16.48;;;;;;;19.30;100.00;96582.81;5085403;28;20052;-64
2021/08/28 02:23:12;;;;;;;23.40;16.20;;;;;;;19.37;100.00;96582.66;5085066;28;20056;-66
2021/08/28 02:25:59;;;;;;;22.13;17.10;;;;;;;19.74;100.00;96642.34;5083856;28;20508;-67
2021/08/28 02:28:40;;;;;;;22.75;16.52;;;;;;;19.77;100.00;96642.28;5083506;28;20554;-64
2021/08/28 02:31:08;;;;;;;25.85;17.88;;;;;;;19.77;100.00;96638.66;5085348;28;20062;-64
2021/08/28 02:33:37;;;;;;;22.13;17.23;;;;;;;19.76;100.00;96642.72;5085895;28;20059;-63
2021/08/28 02:36:05;;;;;;;27.17;17.15;;;;;;;19.77;100.00;96645.09;5085350;28;20055;-67
2021/08/28 02:38:32;;;;;;;24.05;16.98;;;;;;;19.83;100.00;96642.53;5084986;28;20060;-66
2021/08/28 02:41:03;;;;;;;23.33;16.95;;;;;;;19.80;100.00;96640.59;5083831;28;20058;-63
2021/08/28 02:43:30;;;;;;;22.23;17.00;;;;;;;19.81;100.00;96644.97;5083286;28;20063;-64
2021/08/28 02:45:59;;;;;;;20.98;16.63;;;;;;;19.52;100.00;96583.88;5085134;28;20060;-63
2021/08/28 02:48:29;;;;;;;23.67;17.45;;;;;;;19.89;100.00;96637.94;5084859;28;20052;-66
2021/08/28 02:50:59;;;;;;;23.88;17.65;;;;;;;19.84;100.00;96647.69;5085031;28;20063;-63
2021/08/28 02:53:26;;;;;;;22.70;18.88;;;;;;;19.87;100.00;96648.84;5084552;28;20051;-66
2021/08/28 02:55:53;;;;;;;25.98;17.15;;;;;;;19.72;100.00;96625.13;5084977;28;20051;-67
2021/08/28 02:58:21;;;;;;;21.80;17.02;;;;;;;19.54;100.00;96575.81;5084739;28;20048;-63
2021/08/28 03:00:49;;;;;;;21.80;17.58;;;;;;;19.90;100.00;96650.78;5084750;28;20457;-64
2021/08/28 03:03:17;;;;;;;21.67;16.98;;;;;;;19.89;100.00;96646.38;5082877;28;20577;-63
2021/08/28 03:05:48;;;;;;;22.60;17.33;;;;;;;19.91;100.00;96660.78;5084125;28;20616;-66
2021/08/28 03:08:17;;;;;;;26.33;17.65;;;;;;;19.96;100.00;96658.25;5085043;28;20044;-66
2021/08/28 03:10:49;;;;;;;29.70;18.48;;;;;;;19.52;100.00;96592.31;5083258;28;20059;-66
2021/08/28 03:13:17;;;;;;;27.37;18.13;;;;;;;19.58;100.00;96615.81;5083253;28;20054;-63
2021/08/28 03:15:45;;;;;;;25.33;17.92;;;;;;;19.98;100.00;96661.38;5084197;28;20044;-63
2021/08/28 03:18:14;;;;;;;23.58;16.73;;;;;;;20.10;100.00;96660.69;5084432;28;20431;-64
2021/08/28 03:20:45;;;;;;;22.83;16.98;;;;;;;20.20;100.00;96656.81;5084390;28;20048;-64
2021/08/28 03:23:16;;;;;;;26.60;18.48;;;;;;;19.68;100.00;96588.69;5084748;28;20241;-66
2021/08/28 03:25:44;;;;;;;27.35;18.60;;;;;;;19.68;100.00;96602.75;5084058;28;20528;-66
2021/08/28 03:28:12;;;;;;;23.73;18.30;;;;;;;20.18;100.00;96664.13;5084137;28;20510;-64
2021/08/28 03:30:43;;;;;;;22.73;16.92;;;;;;;20.30;100.00;96675.44;5084275;28;20056;-63
2021/08/28 03:33:13;;;;;;;26.75;18.50;;;;;;;20.37;100.00;96666.03;5083985;28;20083;-65
2021/08/28 03:35:41;;;;;;;25.48;18.02;;;;;;;20.04;99.38;96619.47;5082975;28;20047;-65
2021/08/28 03:38:08;;;;;;;26.35;19.73;;;;;;;20.37;99.24;96660.41;5084404;28;20060;-62
2021/08/28 03:40:35;;;;;;;23.13;19.10;;;;;;;20.37;100.00;96672.44;5082454;28;20142;-63
2021/08/28 03:43:02;;;;;;;22.83;17.95;;;;;;;20.40;97.83;96660.31;5082592;28;20446;-66
2021/08/28 03:45:30;;;;;;;26.75;19.30;;;;;;;19.93;97.61;96590.84;5082470;28;20044;-65
2021/08/28 03:47:57;;;;;;;38.08;20.23;;;;;;;20.46;97.15;96666.16;5084129;28;20048;-64
2021/08/28 03:50:24;;;;;;;23.42;18.17;;;;;;;20.48;95.88;96666.50;5084210;28;20082;-66
2021/08/28 03:52:50;;;;;;;24.92;18.83;;;;;;;20.40;96.94;96671.56;5084192;28;20059;-66
2021/08/28 03:55:17;;;;;;;22.40;18.05;;;;;;;20.34;96.30;96672.53;5082312;28;20048;-64
2021/08/28 03:57:44;;;;;;;29.00;17.52;;;;;;;19.88;96.59;96595.00;5082355;28;20754;-64
2021/08/28 04:00:11;;;;;;;24.70;17.58;;;;;;;20.47;95.70;96681.84;5084007;28;20047;-67
2021/08/28 04:02:38;;;;;;;34.70;17.95;;;;;;;19.86;94.95;96577.78;5082617;28;20048;-64
2021/08/28 04:05:05;;;;;;;24.20;17.35;;;;;;;20.57;94.85;96684.34;5083395;28;20476;-64
2021/08/28 04:07:37;;;;;;;29.25;17.48;;;;;;;20.18;93.32;96613.50;5082661;28;20056;-66
2021/08/28 04:10:04;;;;;;;28.48;17.98;;;;;;;20.59;94.41;96683.91;5083390;28;20056;-65
2021/08/28 04:12:31;;;;;;;30.30;18.23;;;;;;;20.50;95.34;96664.81;5083670;28;20058;-66
2021/08/28 04:14:58;;;;;;;25.88;17.75;;;;;;;20.30;93.83;96624.00;5083770;28;20058;-65
2021/08/28 04:17:24;;;;;;;25.95;17.70;;;;;;;20.32;91.93;96630.78;5087903;28;20434;-64
2021/08/28 04:19:51;;;;;;;31.70;17.92;;;;;;;20.87;90.18;96694.34;5087829;28;20489;-65
2021/08/28 04:22:18;;;;;;;27.00;16.77;;;;;;;21.06;88.62;96693.41;5086345;28;20058;-65
2021/08/28 04:24:44;;;;;;;23.92;19.02;;;;;;;20.80;88.09;96639.03;5086456;28;20513;-66
2021/08/28 04:27:11;;;;;;;26.27;18.63;;;;;;;21.10;87.83;96696.94;5088055;28;20056;-64
2021/08/28 04:29:38;;;;;;;31.27;18.63;;;;;;;21.19;88.31;96699.88;5087581;28;20052;-63
2021/08/28 04:32:06;;;;;;;27.00;18.88;;;;;;;21.42;86.86;96691.09;5085654;28;20048;-63
2021/08/28 04:34:33;;;;;;;30.08;17.75;;;;;;;21.49;86.12;96696.53;5087486;28;20052;-64
2021/08/28 04:37:00;;;;;;;23.00;17.27;;;;;;;21.60;85.20;96696.97;5087434;28;20066;-63
2021/08/28 04:39:27;;;;;;;27.30;17.98;;;;;;;21.54;83.47;96679.06;5085996;28;20086;-65
2021/08/28 04:41:53;;;;;;;23.95;18.10;;;;;;;21.86;82.09;96703.44;5087726;28;20054;-65
2021/08/28 04:44:20;;;;;;;22.65;16.85;;;;;;;21.89;82.57;96697.66;5085585;28;20086;-65
2021/08/28 04:46:47;;;;;;;24.83;17.75;;;;;;;22.06;81.42;96696.28;5087461;28;20060;-64
2021/08/28 04:49:13;;;;;;;20.08;16.48;;;;;;;22.18;81.39;96687.00;5087094;28;20071;-63
2021/08/28 04:51:40;;;;;;;27.80;18.23;;;;;;;22.31;79.88;96690.59;5087850;28;20058;-65
2021/08/28 04:54:07;;;;;;;24.80;18.85;;;;;;;22.56;77.97;96677.66;5086865;27;20465;-65
2021/08/28 04:56:34;;;;;;;22.33;17.52;;;;;;;22.49;78.32;96639.91;5087246;28;20052;-62
2021/08/28 04:59:00;;;;;;;29.33;19.27;;;;;;;22.95;77.11;96682.66;5087050;28;20050;-63
2021/08/28 05:01:27;;;;;;;26.15;18.42;;;;;;;23.08;74.88;96669.25;5086619;28;20052;-66
2021/08/28 05:03:54;;;;;;;23.73;17.73;;;;;;;23.20;73.83;96682.50;5086166;28;20048;-64
2021/08/28 05:06:21;;;;;;;24.13;18.15;;;;;;;23.39;70.98;96689.88;5086794;28;20055;-61
2021/08/28 05:08:48;;;;;;;21.40;17.55;;;;;;;23.38;70.98;96688.28;5085033;28;20060;-67
2021/08/28 05:11:14;;;;;;;24.67;18.25;;;;;;;23.51;70.13;96686.16;5085395;28;20494;-64
2021/08/28 05:13:41;;;;;;;26.10;17.63;;;;;;;23.50;69.99;96681.78;5086900;28;20131;-62
2021/08/28 05:16:08;;;;;;;28.80;18.50;;;;;;;23.52;69.51;96670.78;5086706;28;20827;-63
2021/08/28 05:18:34;;;;;;;25.48;18.45;;;;;;;23.58;67.58;96688.72;5084914;28;20060;-64
2021/08/28 05:21:01;;;;;;;21.00;17.45;;;;;;;23.48;68.75;96675.78;5086495;28;20375;-65
2021/08/28 05:23:28;;;;;;;25.10;19.17;;;;;;;23.54;70.43;96680.38;5086660;28;20367;-62
2021/08/28 05:25:55;;;;;;;25.00;18.42;;;;;;;23.50;70.57;96667.63;5085668;28;20056;-63
2021/08/28 05:28:22;;;;;;;20.83;17.65;;;;;;;23.89;69.59;96683.81;5085747;28;20572;-66
2021/08/28 05:30:49;;;;;;;19.50;16.23;;;;;;;24.07;66.28;96689.56;5086438;28;20049;-63
2021/08/28 05:33:16;;;;;;;24.98;16.80;;;;;;;23.02;63.89;96513.66;5086310;28;20477;-66
2021/08/28 05:35:42;;;;;;;22.23;16.67;;;;;;;24.28;64.09;96685.81;5084635;28;20090;-68
2021/08/28 05:38:09;;;;;;;20.60;15.48;;;;;;;24.38;63.93;96681.75;5086437;28;20127;-68
2021/08/28 05:40:36;;;;;;;20.58;15.98;;;;;;;24.41;64.03;96674.34;5084710;28;20048;-63
2021/08/28 05:43:03;;;;;;;18.65;16.15;;;;;;;24.53;63.79;96677.03;5086292;28;20052;-65
2021/08/28 05:45:30;;;;;;;20.63;15.95;;;;;;;24.64;63.34;96666.03;5085748;28;20545;-62
2021/08/28 05:47:57;;;;;;;23.45;16.50;;;;;;;24.81;63.24;96670.16;5084804;28;20044;-65
2021/08/28 05:50:24;;;;;;;20.75;16.67;;;;;;;24.90;62.66;96666.50;5086300;28;20126;-67
2021/08/28 05:52:51;;;;;;;19.60;16.23;;;;;;;24.91;62.49;96668.88;5085553;28;20051;-63
2021/08/28 05:55:17;;;;;;;19.45;16.48;;;;;;;24.77;62.68;96627.00;5085806;28;20052;-66
2021/08/28 05:57:44;;;;;;;20.65;17.42;;;;;;;25.15;61.87;96655.63;5086046;28;20052;-64
2021/08/28 06:00:12;;;;;;;19.33;15.80;;;;;;;25.17;62.81;96655.94;5085542;28;20044;-62
2021/08/28 06:02:39;;;;;;;21.23;17.80;;;;;;;25.19;63.53;96678.94;5084192;28;20102;-66
2021/08/28 06:05:08;;;;;;;17.85;15.95;;;;;;;25.24;63.02;96664.09;5085525;28;20068;-62
2021/08/28 06:07:36;;;;;;;19.52;16.17;;;;;;;25.50;62.75;96663.75;5085675;28;20211;-66
2021/08/28 06:10:04;;;;;;;17.80;15.98;;;;;;;25.49;61.30;96642.31;5085573;28;20055;-66
2021/08/28 06:12:32;;;;;;;17.65;15.65;;;;;;;25.32;61.87;96648.31;5085852;28;21062;-67
2021/08/28 06:15:00;;;;;;;20.20;15.45;;;;;;;25.52;62.78;96655.53;5085493;28;20060;-63
2021/08/28 06:17:26;;;;;;;23.13;16.20;;;;;;;25.27;60.83;96583.78;5085581;28;20442;-66
2021/08/28 06:19:53;;;;;;;19.50;16.20;;;;;;;25.38;60.83;96608.00;5083709;28;20052;-66
2021/08/28 06:22:20;;;;;;;20.08;16.30;;;;;;;25.65;61.74;96647.63;5085381;28;20048;-63
2021/08/28 06:24:46;;;;;;;21.10;16.05;;;;;;;25.71;60.78;96631.50;5085881;28;20053;-64
2021/08/28 06:27:13;;;;;;;22.88;16.73;;;;;;;25.78;60.88;96623.41;5085764;28;20142;-62
2021/08/28 06:29:40;;;;;;;19.20;16.08;;;;;;;25.88;60.23;96632.66;5085407;28;20066;-61
2021/08/28 06:32:07;;;;;;;19.98;14.77;;;;;;;26.05;59.15;96631.81;5083921;28;20422;-62
2021/08/28 06:34:34;;;;;;;23.63;17.15;;;;;;;26.08;58.94;96615.88;5084597;28;20067;-67
2021/08/28 06:37:02;;;;;;;19.52;15.60;;;;;;;26.36;58.08;96642.81;5085381;28;20051;-62
2021/08/28 06:39:28;;;;;;;17.30;15.20;;;;;;;26.32;58.18;96639.38;5084622;28;20446;-65
2021/08/28 06:41:55;;;;;;;18.95;15.18;;;;;;;26.47;55.80;96640.22;5085275;28;20139;-62
2021/08/28 06:44:23;;;;;;;19.88;15.68;;;;;;;26.46;57.17;96610.25;5083170;28;20173;-66
2021/08/28 06:46:50;;;;;;;18.00;14.77;;;;;;;26.34;55.04;96588.53;5085228;28;20487;-66
2021/08/28 06:49:17;;;;;;;21.98;17.27;;;;;;;26.08;56.50;96550.56;5084781;28;20044;-67
2021/08/28 06:51:43;;;;;;;19.83;15.07;;;;;;;26.62;56.62;96612.59;5084625;28;20047;-67
2021/08/28 06:54:10;;;;;;;20.25;16.25;;;;;;;26.74;55.94;96620.13;5084669;28;20501;-66
2021/08/28 06:56:37;;;;;;;19.20;16.55;;;;;;;26.77;55.61;96629.72;5083251;28;20070;-67
2021/08/28 06:59:04;;;;;;;20.90;16.63;;;;;;;26.68;56.35;96622.09;5084586;28;20429;-68
2021/08/28 07:01:31;;;;;;;18.88;15.10;;;;;;;26.83;55.42;96622.09;5082802;28;20048;-62
2021/08/28 07:03:58;;;;;;;19.02;16.48;;;;;;;26.95;54.58;96630.38;5083953;28;20064;-63
2021/08/28 07:06:25;;;;;;;17.88;15.73;;;;;;;26.92;53.51;96613.50;5084170;28;20059;-67
2021/08/28 07:08:52;;;;;;;19.20;16.13;;;;;;;26.93;52.66;96604.47;5083062;28;20124;-63
2021/08/28 07:11:19;;;;;;;18.98;15.57;;;;;;;26.98;52.86;96595.25;5084894;28;20052;-68
2021/08/28 07:13:45;;;;;;;18.17;15.63;;;;;;;26.42;53.17;96474.06;5084288;28;20063;-68
2021/08/28 07:16:12;;;;;;;21.02;16.52;;;;;;;26.47;53.50;96481.13;5084136;28;20529;-67
2021/08/28 07:18:39;;;;;;;18.83;15.80;;;;;;;27.27;54.19;96600.19;5082320;28;20055;-62
2021/08/28 07:21:06;;;;;;;19.27;16.00;;;;;;;27.31;53.71;96601.56;5084351;28;20052;-63
2021/08/28 07:23:33;;;;;;;16.63;14.70;;;;;;;26.09;52.42;96350.56;5084130;28;20156;-67
2021/08/28 07:25:59;;;;;;;18.25;15.68;;;;;;;27.49;51.80;96527.34;5083934;28;20060;-62
2021/08/28 07:28:26;;;;;;;20.10;16.65;;;;;;;27.65;51.79;96535.34;5083734;28;20063;-66
2021/08/28 07:30:53;;;;;;;19.63;17.23;;;;;;;27.79;52.24;96580.06;5082131;28;20055;-66
2021/08/28 07:33:20;;;;;;;19.77;16.48;;;;;;;26.83;54.27;96563.19;5083495;28;20048;-62
2021/08/28 07:35:47;;;;;;;17.70;15.30;;;;;;;27.07;54.54;96598.00;5082491;28;20070;-66
2021/08/28 07:38:13;;;;;;;24.20;15.82;;;;;;;27.20;54.84;96584.28;5084359;28;20529;-62
2021/08/28 07:40:40;;;;;;;22.35;17.38;;;;;;;27.50;55.12;96591.53;5081988;28;20079;-61
2021/08/28 07:43:07;;;;;;;16.70;15.05;;;;;;;27.61;54.70;96591.72;5081723;28;20518;-63
2021/08/28 07:45:34;;;;;;;16.88;14.77;;;;;;;27.06;54.43;96482.69;5083352;28;20051;-66
2021/08/28 07:48:01;;;;;;;20.30;14.98;;;;;;;27.85;53.67;96589.47;5083613;28;20419;-66
2021/08/28 07:50:27;;;;;;;20.35;15.38;;;;;;;27.95;53.75;96593.00;5083408;28;20050;-69
2021/08/28 07:52:54;;;;;;;20.30;16.42;;;;;;;27.95;53.73;96587.31;5081944;28;20052;-66
2021/08/28 07:55:22;;;;;;;18.00;13.77;;;;;;;27.76;53.42;96541.19;5082237;28;20075;-65
2021/08/28 07:57:48;;;;;;;38.92;22.80;;;;;;;28.12;53.22;96574.09;5082027;28;20047;-65
2021/08/28 08:00:16;;;;;;;29.23;20.60;;;;;;;27.71;53.42;96510.59;5084111;28;20044;-63
2021/08/28 08:02:43;;;;;;;25.33;18.58;;;;;;;27.90;53.48;96548.94;5083623;28;20106;-67
2021/08/28 08:05:10;;;;;;;29.77;19.42;;;;;;;27.91;53.41;96559.06;5083302;28;20051;-63
2021/08/28 08:07:37;;;;;;;24.75;15.68;;;;;;;27.97;53.45;96568.44;5081710;28;20051;-66
2021/08/28 08:10:05;;;;;;;20.92;15.93;;;;;;;28.15;52.92;96578.78;5082298;28;20074;-62
2021/08/28 08:12:34;;;;;;;26.15;16.35;;;;;;;27.73;53.86;96532.84;5082028;28;20419;-68
2021/08/28 08:15:02;;;;;;;18.23;13.95;;;;;;;28.28;53.26;96572.75;5083260;28;20597;-66
2021/08/28 08:17:28;;;;;;;20.20;14.73;;;;;;;27.96;52.82;96549.78;5083364;28;20058;-67
2021/08/28 08:19:55;;;;;;;22.55;15.48;;;;;;;27.92;53.36;96503.66;5083006;28;20058;-66
2021/08/28 08:22:22;;;;;;;32.45;20.45;;;;;;;28.30;52.75;96555.91;5081896;28;20478;-62
2021/08/28 08:24:49;;;;;;;35.75;20.90;;;;;;;28.39;52.71;96567.19;5083015;28;20097;-63
2021/08/28 08:27:17;;;;;;;18.80;15.57;;;;;;;28.09;53.30;96567.31;5082842;28;20048;-63
2021/08/28 08:29:43;;;;;;;17.50;14.30;;;;;;;28.04;52.78;96573.72;5081123;28;20048;-63
2021/08/28 08:32:14;;;;;;;23.00;15.52;;;;;;;28.00;54.95;96567.47;5081844;28;20847;-63
2021/08/28 08:34:41;;;;;;;18.55;13.40;;;;;;;27.93;53.99;96515.84;5083046;28;20055;-63
2021/08/28 08:37:08;;;;;;;24.27;13.70;;;;;;;28.38;52.14;96528.53;5083376;28;20048;-63
2021/08/28 08:39:34;;;;;;;22.45;14.60;;;;;;;28.78;52.49;96559.88;5083256;28;20147;-68
2021/08/28 08:42:05;;;;;;;23.48;13.98;;;;;;;28.83;52.44;96548.53;5084082;28;20417;-63
2021/08/28 08:44:32;;;;;;;20.73;16.10;;;;;;;28.80;50.81;96508.81;5081692;28;20616;-63
2021/08/28 08:47:00;;;;;;;16.85;14.00;;;;;;;29.18;50.76;96546.28;5083434;28;20048;-63
2021/08/28 08:49:27;;;;;;;18.67;12.82;;;;;;;29.40;50.41;96574.25;5082559;28;20410;-64
2021/08/28 08:51:55;;;;;;;19.52;13.98;;;;;;;29.19;49.57;96495.72;5082835;28;20051;-67
2021/08/28 08:54:22;;;;;;;18.92;15.20;;;;;;;29.14;50.89;96547.78;5082512;28;20498;-67
2021/08/28 08:56:49;;;;;;;21.52;14.48;;;;;;;28.98;51.67;96542.69;5083089;28;20059;-68
2021/08/28 08:59:16;;;;;;;18.45;13.35;;;;;;;29.06;49.88;96526.69;5081152;28;20048;-64
2021/08/28 09:01:43;;;;;;;16.40;13.40;;;;;;;28.83;49.78;96467.91;5083077;28;20044;-63
2021/08/28 09:04:12;;;;;;;14.73;12.68;;;;;;;29.32;49.74;96533.94;5086593;28;20054;-67
2021/08/28 09:06:39;;;;;;;16.95;14.25;;;;;;;29.58;51.14;96533.09;5086838;28;20534;-64
2021/08/28 09:09:06;;;;;;;17.60;13.57;;;;;;;29.67;49.63;96525.13;5086056;28;20055;-67
2021/08/28 09:11:33;;;;;;;24.63;13.98;;;;;;;29.74;48.63;96506.75;5087220;28;20058;-63
2021/08/28 09:14:21;;;;;;;14.20;12.77;;;;;;;28.62;48.98;96449.28;5086428;28;20059;-66
2021/08/28 09:16:49;;;;;;;20.27;15.98;;;;;;;29.15;49.79;96495.16;5086668;28;20072;-70
2021/08/28 09:19:34;;;;;;;20.08;14.65;;;;;;;29.19;49.88;96507.91;5086402;28;20055;-72
2021/08/28 09:22:00;;;;;;;20.75;14.57;;;;;;;28.78;51.35;96505.69;5085336;28;20139;-72
2021/08/28 09:24:41;;;;;;;16.90;12.65;;;;;;;29.08;49.50;96518.44;5085792;28;20490;-71
2021/08/28 09:27:08;;;;;;;15.82;12.32;;;;;;;27.92;51.75;96463.00;5086410;28;20059;-70
2021/08/28 09:29:50;;;;;;;22.08;14.15;;;;;;;28.63;51.65;96468.75;5085628;28;20063;-65
2021/08/28 09:32:17;;;;;;;25.05;16.90;;;;;;;29.00;50.10;96517.31;5085897;28;20056;-62
2021/08/28 09:34:43;;;;;;;19.58;14.60;;;;;;;29.19;49.42;96484.28;5085521;28;20056;-63
2021/08/28 09:37:11;;;;;;;18.30;14.02;;;;;;;29.39;49.64;96501.28;5086251;28;20054;-63
2021/08/28 09:39:45;;;;;;;23.23;13.57;;;;;;;29.64;49.21;96502.50;5086056;28;20600;-63
2021/08/28 09:42:23;;;;;;;21.80;12.75;;;;;;;29.42;48.31;96497.41;5085786;28;20142;-65
2021/08/28 09:44:52;;;;;;;17.45;12.45;;;;;;;29.67;47.44;96501.53;5084340;28;20066;-66
2021/08/28 09:47:24;;;;;;;19.92;13.02;;;;;;;29.98;47.32;96482.22;5085323;28;20051;-71
2021/08/28 09:49:52;;;;;;;14.13;10.63;;;;;;;29.67;46.88;96490.09;5085722;28;20074;-63
2021/08/28 09:52:23;;;;;;;14.68;10.57;;;;;;;28.99;47.69;96458.69;5085852;28;20129;-73
2021/08/28 09:54:51;;;;;;;20.40;12.10;;;;;;;28.53;49.18;96477.97;5085320;28;20050;-69
2021/08/28 09:57:17;;;;;;;18.70;13.07;;;;;;;28.98;49.07;96483.56;5086103;28;20058;-65
2021/08/28 09:59:45;;;;;;;20.17;12.40;;;;;;;29.49;48.70;96474.91;5086438;28;20501;-72
2021/08/28 10:02:17;;;;;;;27.17;13.63;;;;;;;27.54;49.19;96193.69;5085785;28;20048;-64
2021/08/28 10:04:49;;;;;;;19.55;13.75;;;;;;;29.57;48.83;96475.22;5085554;28;20090;-65
2021/08/28 10:07:24;;;;;;;19.02;14.98;;;;;;;29.44;48.48;96432.06;5085250;28;20054;-63
2021/08/28 10:09:56;;;;;;;21.88;14.52;;;;;;;29.54;49.83;96465.59;5084951;28;20684;-72
2021/08/28 10:12:31;;;;;;;18.55;13.80;;;;;;;29.52;50.13;96458.84;5085406;28;20135;-64
2021/08/28 10:15:00;;;;;;;17.65;14.30;;;;;;;29.88;48.51;96432.31;5085163;28;20054;-61
2021/08/28 10:17:29;;;;;;;19.00;14.75;;;;;;;30.53;47.24;96462.41;5085822;28;20163;-74
2021/08/28 10:19:55;;;;;;;19.10;14.82;;;;;;;30.40;46.60;96410.66;5085155;28;20052;-64
2021/08/28 10:22:27;;;;;;;15.30;13.32;;;;;;;29.22;46.94;96289.25;5084355;28;20127;-71
2021/08/28 10:24:57;;;;;;;17.52;13.88;;;;;;;30.12;47.79;96461.22;5084498;28;20054;-72
2021/08/28 10:27:25;;;;;;;15.45;13.80;;;;;;;30.19;47.49;96445.66;5083905;28;20241;-65
2021/08/28 10:29:53;;;;;;;14.48;13.07;;;;;;;29.76;47.88;96447.84;5084916;28;20044;-63
2021/08/28 10:32:21;;;;;;;19.55;14.32;;;;;;;29.47;49.17;96453.88;5085884;28;20055;-71
2021/08/28 10:34:48;;;;;;;17.98;15.05;;;;;;;29.82;48.00;96442.94;5083854;28;20510;-63
2021/08/28 10:37:16;;;;;;;15.60;13.25;;;;;;;29.63;47.94;96444.63;5085327;28;20146;-65
2021/08/28 10:39:45;;;;;;;13.38;10.90;;;;;;;29.31;49.01;96440.28;5085065;28;20044;-64
2021/08/28 10:42:13;;;;;;;19.98;14.25;;;;;;;29.92;49.23;96438.56;5085175;28;20074;-63
2021/08/28 10:44:40;;;;;;;20.33;14.90;;;;;;;29.77;47.09;96346.56;5083103;28;20054;-70
2021/08/28 10:47:31;;;;;;;19.85;13.40;;;;;;;30.41;47.37;96429.38;5084836;28;20081;-71
2021/08/28 10:50:10;;;;;;;16.35;13.23;;;;;;;30.28;46.45;96431.94;5084301;28;20048;-63
2021/08/28 10:52:39;;;;;;;16.90;13.00;;;;;;;29.41;47.67;96376.00;5084840;28;20056;-63
2021/08/28 10:55:10;;;;;;;24.15;14.45;;;;;;;30.51;46.33;96424.97;5084980;28;20422;-72
2021/08/28 10:57:38;;;;;;;21.00;14.30;;;;;;;30.38;46.96;96398.94;5084614;28;20048;-71
2021/08/28 11:00:05;;;;;;;34.10;16.02;;;;;;;30.94;45.55;96432.06;5082893;28;20423;-70
2021/08/28 11:03:00;;;;;;;24.35;14.70;;;;;;;31.28;44.29;96427.09;5082638;28;20056;-69
2021/08/28 11:05:30;;;;;;;21.45;14.73;;;;;;;31.22;44.08;96359.69;5084706;28;20067;-73
2021/08/28 11:07:58;;;;;;;18.73;12.88;;;;;;;31.58;44.34;96398.66;5084831;28;20059;-71
2021/08/28 11:10:27;;;;;;;21.60;13.55;;;;;;;31.10;44.87;96415.38;5086389;28;20059;-70
2021/08/28 11:13:02;;;;;;;13.38;10.48;;;;;;;30.02;45.95;96408.44;5084791;28;20046;-69
2021/08/28 11:15:42;;;;;;;16.30;12.60;;;;;;;30.22;45.65;96411.16;5083404;28;20517;-69
2021/08/28 11:18:15;;;;;;;17.48;14.40;;;;;;;30.16;46.11;96387.44;5083242;28;20147;-64
2021/08/28 11:20:47;;;;;;;22.70;14.77;;;;;;;30.01;46.12;96321.19;5084633;28;20044;-66